Abraham, West Virginia
Current Conditions -  °F | °C
As of 7:51 PM on Monday 24 Nov 2014 (Local Time) from KBKW Reporting Station
Scattered Clouds Scattered Clouds  
Wind Chill: 58°   Ceiling: Unl
Heat Index: 58°   Visibility: 10mi
Dew Point: 37°   Wind: 7mph
Humidity: 46%   Direction: 280°W
Pressure: 29.82"   Gusts: NA
Location:  37.6906°N, 81.1704°W
Report Text: KBKW 250051Z AUTO 28006KT 10SM SCT055 14/03 A2982 RMK AO2 SLP082 T01440028
Loading
Personal Weather Stations






























Interactive Weather Map New forecast layout! Learn more

10-Day Weather Forecast

Advertisements
Track Severe Weather on mobile